Sao Paulo, Brazil
Current Conditions -  °F | °C
As of 7:00 AM on Tuesday 21 Oct 2014 (Local Time) from SBSP Reporting Station
Overcast Overcast  
Wind Chill: 16°   Ceiling: 1000
Heat Index: 16°   Visibility: 6mi
Dew Point: 12°   Wind: 16mph
Humidity: 77%   Direction: 150°SSE
Pressure: 30.18"   Gusts: NA
Location:  23.53°S, 46.63°W
Report Text: SBSP 210900Z 15014KT 9999 BKN010 OVC030 16/12 Q1022
Loading
Personal Weather Stations






























Interactive Weather Map
Tropical Storm Tracking
New forecast layout! Learn more

10-Day Weather Forecast

Advertisements
Track Severe Weather on mobile